createdAt,value
2022-11-16T00:01:10.665Z,96398.13
2022-11-16T00:03:37.249Z,96389.25
2022-11-16T00:06:05.800Z,96386.47
2022-11-16T00:08:35.909Z,96379.66
2022-11-16T00:11:14.266Z,96369.97
2022-11-16T00:13:43.117Z,96370.75
2022-11-16T00:16:15.993Z,96365.72
2022-11-16T00:18:42.721Z,96360.66
2022-11-16T00:21:09.241Z,96363.06
2022-11-16T00:23:38.400Z,96351.25
2022-11-16T00:26:06.277Z,96353.56
2022-11-16T00:28:33.050Z,96357.47
2022-11-16T00:31:01.629Z,96361.59
2022-11-16T00:33:28.368Z,96373.53
2022-11-16T00:35:55.345Z,96360.41
2022-11-16T00:38:22.263Z,96358.00
2022-11-16T00:40:48.831Z,96368.56
2022-11-16T00:43:16.129Z,96369.28
2022-11-16T00:45:43.762Z,96363.84
2022-11-16T00:48:10.794Z,96361.22
2022-11-16T00:50:38.130Z,96360.41
2022-11-16T00:53:05.790Z,96355.41
2022-11-16T00:55:33.217Z,96365.38
2022-11-16T00:58:00.031Z,96362.94
2022-11-16T01:00:26.621Z,96361.34
2022-11-16T01:02:54.617Z,96357.84
2022-11-16T01:05:22.283Z,96363.25
2022-11-16T01:07:49.089Z,96368.69
2022-11-16T01:10:18.402Z,96355.44
2022-11-16T01:12:46.530Z,96355.50
2022-11-16T01:15:13.050Z,96359.13
2022-11-16T01:17:40.812Z,96358.63
2022-11-16T01:20:11.734Z,96361.50
2022-11-16T01:22:39.989Z,96358.47
2022-11-16T01:25:08.270Z,96359.31
2022-11-16T01:27:35.052Z,96357.13
2022-11-16T01:30:01.667Z,96353.88
2022-11-16T01:32:28.188Z,96352.97
2022-11-16T01:34:54.705Z,96348.69
2022-11-16T01:37:21.200Z,96346.00
2022-11-16T01:39:50.188Z,96342.84
2022-11-16T01:42:25.963Z,96336.50
2022-11-16T01:44:59.557Z,96350.31
2022-11-16T01:47:26.417Z,96356.53
2022-11-16T01:50:15.630Z,96351.97
2022-11-16T01:52:49.994Z,96346.06
2022-11-16T01:55:17.094Z,96343.38
2022-11-16T01:57:46.231Z,96342.81
2022-11-16T02:00:14.474Z,96348.97
2022-11-16T02:02:41.633Z,96346.84
2022-11-16T02:05:11.086Z,96351.53
2022-11-16T02:08:38.235Z,96346.28
2022-11-16T02:11:19.525Z,96345.66
2022-11-16T02:14:00.931Z,96338.63
2022-11-16T02:16:44.726Z,96341.00
2022-11-16T02:20:00.438Z,96350.91
2022-11-16T02:22:47.065Z,96337.97
2022-11-16T02:25:29.594Z,96340.69
2022-11-16T02:28:34.628Z,96340.56
2022-11-16T02:31:05.508Z,96330.16
2022-11-16T02:33:36.438Z,96336.41
2022-11-16T02:36:06.938Z,96333.97
2022-11-16T02:38:38.541Z,96332.41
2022-11-16T02:41:21.105Z,96331.94
2022-11-16T02:43:57.086Z,96331.69
2022-11-16T02:46:31.049Z,96323.78
2022-11-16T02:49:02.738Z,96330.50
2022-11-16T02:51:30.453Z,96317.53
2022-11-16T02:54:03.125Z,96324.63
2022-11-16T02:56:30.738Z,96319.44
2022-11-16T02:58:59.409Z,96325.16
2022-11-16T03:01:35.367Z,96327.16
2022-11-16T03:04:14.183Z,96334.53
2022-11-16T03:06:43.810Z,96328.88
2022-11-16T03:09:19.222Z,96327.25
2022-11-16T03:12:00.318Z,96324.47
2022-11-16T03:14:41.167Z,96318.19
2022-11-16T03:17:14.891Z,96309.28
2022-11-16T03:19:42.687Z,96306.13
2022-11-16T03:22:14.387Z,96309.38
2022-11-16T03:24:42.019Z,96304.22
2022-11-16T03:27:27.806Z,96317.09
2022-11-16T03:30:06.357Z,96324.22
2022-11-16T03:32:41.829Z,96323.69
2022-11-16T03:35:17.793Z,96336.81
2022-11-16T03:37:46.450Z,96346.16
2022-11-16T03:40:14.059Z,96337.16
2022-11-16T03:42:43.749Z,96344.06
2022-11-16T03:45:11.962Z,96338.63
2022-11-16T03:47:38.484Z,96332.91
2022-11-16T03:50:05.532Z,96327.91
2022-11-16T03:52:32.050Z,96344.72
2022-11-16T03:54:58.374Z,96334.03
2022-11-16T03:57:24.906Z,96330.56
2022-11-16T03:59:51.463Z,96339.69
2022-11-16T04:02:17.975Z,96350.16
2022-11-16T04:05:03.050Z,96357.13
2022-11-16T04:07:48.173Z,96362.47
2022-11-16T04:10:33.533Z,96362.78
2022-11-16T04:13:19.660Z,96367.72
2022-11-16T04:16:04.892Z,96377.13
2022-11-16T04:18:49.995Z,96377.44
2022-11-16T04:21:44.265Z,96385.59
2022-11-16T04:24:18.979Z,96380.16
2022-11-16T04:27:09.317Z,96389.34
2022-11-16T04:29:36.190Z,96371.63
2022-11-16T04:32:21.955Z,96376.19
2022-11-16T04:35:07.527Z,96377.78
2022-11-16T04:37:49.749Z,96361.84
2022-11-16T04:40:17.176Z,96367.97
2022-11-16T04:42:43.653Z,96372.56
2022-11-16T04:45:29.038Z,96388.84
2022-11-16T04:47:55.548Z,96381.03
2022-11-16T04:50:22.072Z,96375.53
2022-11-16T04:52:48.524Z,96375.94
2022-11-16T04:55:15.157Z,96377.31
2022-11-16T04:57:41.641Z,96391.13
2022-11-16T05:00:08.635Z,96397.91
2022-11-16T05:02:35.188Z,96397.22
2022-11-16T05:05:01.763Z,96391.84
2022-11-16T05:07:28.406Z,96405.38
2022-11-16T05:09:54.789Z,96398.00
2022-11-16T05:12:23.801Z,96404.97
2022-11-16T05:14:50.841Z,96402.88
2022-11-16T05:17:18.450Z,96394.91
2022-11-16T05:20:03.860Z,96398.00
2022-11-16T05:22:30.523Z,96387.69
2022-11-16T05:24:57.175Z,96389.53
2022-11-16T05:27:24.861Z,96375.59
2022-11-16T05:29:52.045Z,96376.06
2022-11-16T05:32:19.857Z,96374.84
2022-11-16T05:34:46.824Z,96381.91
2022-11-16T05:37:13.783Z,96369.41
2022-11-16T05:39:40.330Z,96381.22
2022-11-16T05:42:07.702Z,96371.03
2022-11-16T05:44:34.447Z,96372.66
2022-11-16T05:47:00.997Z,96370.00
2022-11-16T05:49:27.564Z,96367.31
2022-11-16T05:51:54.363Z,96369.50
2022-11-16T05:54:24.654Z,96358.75
2022-11-16T05:56:51.741Z,96358.53
2022-11-16T05:59:20.024Z,96364.56
2022-11-16T06:01:47.422Z,96361.13
2022-11-16T06:04:14.604Z,96372.28
2022-11-16T06:06:40.990Z,96368.47
2022-11-16T06:09:07.697Z,96370.00
2022-11-16T06:11:38.301Z,96364.66
2022-11-16T06:14:05.893Z,96366.63
2022-11-16T06:16:32.585Z,96370.44
2022-11-16T06:18:59.793Z,96379.53
2022-11-16T06:21:26.522Z,96373.31
2022-11-16T06:23:53.634Z,96371.19
2022-11-16T06:26:20.117Z,96370.81
2022-11-16T06:28:46.861Z,96369.09
2022-11-16T06:31:13.358Z,96374.84
2022-11-16T06:33:39.690Z,96369.50
2022-11-16T06:36:06.406Z,96364.06
2022-11-16T06:38:33.371Z,96368.09
2022-11-16T06:41:00.214Z,96367.03
2022-11-16T06:43:27.015Z,96371.78
2022-11-16T06:45:56.597Z,96371.28
2022-11-16T06:48:23.187Z,96367.69
2022-11-16T06:50:51.867Z,96377.91
2022-11-16T06:53:19.207Z,96379.09
2022-11-16T06:55:45.775Z,96387.41
2022-11-16T06:58:12.380Z,96384.28
2022-11-16T07:00:38.861Z,96387.81
2022-11-16T07:03:05.623Z,96390.66
2022-11-16T07:05:32.534Z,96390.41
2022-11-16T07:07:59.177Z,96396.25
2022-11-16T07:10:26.211Z,96388.53
2022-11-16T07:12:52.698Z,96394.78
2022-11-16T07:15:19.587Z,96400.97
2022-11-16T07:17:46.083Z,96397.34
2022-11-16T07:20:12.401Z,96394.91
2022-11-16T07:22:38.994Z,96381.69
2022-11-16T07:25:05.814Z,96393.25
2022-11-16T07:27:32.156Z,96394.97
2022-11-16T07:29:58.673Z,96384.97
2022-11-16T07:32:25.244Z,96390.47
2022-11-16T07:34:51.725Z,96394.19
2022-11-16T07:37:18.049Z,96399.19
2022-11-16T07:39:45.673Z,96399.97
2022-11-16T07:42:12.190Z,96406.50
2022-11-16T07:44:39.175Z,96398.00
2022-11-16T07:47:06.388Z,96400.63
2022-11-16T07:49:32.780Z,96403.63
2022-11-16T07:51:59.203Z,96395.63
2022-11-16T07:54:25.534Z,96395.38
2022-11-16T07:56:52.119Z,96403.03
2022-11-16T07:59:18.522Z,96400.41
2022-11-16T08:01:47.720Z,96393.84
2022-11-16T08:04:15.348Z,96399.81
2022-11-16T08:06:41.841Z,96398.00
2022-11-16T08:09:09.084Z,96403.69
2022-11-16T08:11:35.425Z,96397.84
2022-11-16T08:14:01.986Z,96403.91
2022-11-16T08:16:28.570Z,96406.56
2022-11-16T08:18:54.899Z,96408.59
2022-11-16T08:21:21.237Z,96413.66
2022-11-16T08:23:47.749Z,96410.22
2022-11-16T08:26:16.514Z,96407.84
2022-11-16T08:28:45.447Z,96409.22
2022-11-16T08:31:18.652Z,96409.91
2022-11-16T08:33:45.035Z,96414.19
2022-11-16T08:36:17.229Z,96411.31
2022-11-16T08:38:48.921Z,96416.22
2022-11-16T08:41:16.690Z,96414.84
2022-11-16T08:43:44.730Z,96414.06
2022-11-16T08:46:11.560Z,96417.84
2022-11-16T08:48:38.706Z,96421.00
2022-11-16T08:51:22.528Z,96416.16
2022-11-16T08:53:49.995Z,96417.78
2022-11-16T08:56:18.189Z,96425.47
2022-11-16T08:58:46.700Z,96423.22
2022-11-16T09:01:19.280Z,96440.09
2022-11-16T09:03:46.184Z,96426.84
2022-11-16T09:06:13.323Z,96433.13
2022-11-16T09:08:41.754Z,96429.00
2022-11-16T09:11:11.069Z,96430.75
2022-11-16T09:13:37.908Z,96440.75
2022-11-16T09:16:05.285Z,96434.31
2022-11-16T09:18:32.229Z,96445.84
2022-11-16T09:20:59.329Z,96439.91
2022-11-16T09:23:26.088Z,96438.28
2022-11-16T09:25:53.239Z,96443.47
2022-11-16T09:28:20.821Z,96444.22
2022-11-16T09:30:50.151Z,96439.34
2022-11-16T09:33:16.996Z,96446.94
2022-11-16T09:35:43.585Z,96444.41
2022-11-16T09:38:11.799Z,96448.25
2022-11-16T09:40:44.865Z,96445.44
2022-11-16T09:43:45.907Z,96444.41
2022-11-16T09:46:43.787Z,96439.53
2022-11-16T09:49:17.543Z,96444.78
2022-11-16T09:51:48.360Z,96446.47
2022-11-16T09:54:20.174Z,96429.97
2022-11-16T09:56:51.419Z,96433.06
2022-11-16T09:59:23.801Z,96432.06
2022-11-16T10:01:56.076Z,96442.47
2022-11-16T10:05:00.138Z,96430.09
2022-11-16T10:07:35.417Z,96445.00
2022-11-16T10:10:01.945Z,96438.69
2022-11-16T10:12:57.645Z,96439.56
2022-11-16T10:15:48.874Z,96443.34
2022-11-16T10:18:45.982Z,96437.16
2022-11-16T10:21:23.689Z,96438.69
2022-11-16T10:24:09.058Z,96444.16
2022-11-16T10:26:55.222Z,96431.97
2022-11-16T10:29:31.183Z,96437.84
2022-11-16T10:32:15.952Z,96439.38
2022-11-16T10:35:11.986Z,96429.50
2022-11-16T10:37:46.631Z,96428.97
2022-11-16T10:40:19.069Z,96421.56
2022-11-16T10:42:53.109Z,96430.00
2022-11-16T10:45:35.611Z,96421.34
2022-11-16T10:48:13.781Z,96418.78
2022-11-16T10:50:43.986Z,96420.22
2022-11-16T10:53:25.505Z,96422.78
2022-11-16T10:56:11.635Z,96418.09
2022-11-16T10:58:58.209Z,96413.16
2022-11-16T11:01:50.078Z,96410.22
2022-11-16T11:04:16.404Z,96401.03
2022-11-16T11:06:43.094Z,96403.25
2022-11-16T11:09:14.773Z,96409.34
2022-11-16T11:12:00.037Z,96406.13
2022-11-16T11:14:26.573Z,96397.84
2022-11-16T11:16:53.769Z,96397.88
2022-11-16T11:19:28.322Z,96399.63
2022-11-16T11:22:00.952Z,96404.72
2022-11-16T11:24:43.943Z,96400.78
2022-11-16T11:27:11.427Z,96388.78
2022-11-16T11:29:41.528Z,96400.94
2022-11-16T11:32:18.011Z,96403.94
2022-11-16T11:34:52.649Z,96405.66
2022-11-16T11:37:35.076Z,96400.59
2022-11-16T11:40:21.271Z,96395.75
2022-11-16T11:42:53.742Z,96396.22
2022-11-16T11:45:23.102Z,96391.13
2022-11-16T11:48:02.232Z,96394.13
2022-11-16T11:50:52.773Z,96394.25
2022-11-16T11:53:39.530Z,96391.03
2022-11-16T11:56:06.648Z,96389.44
2022-11-16T11:58:35.503Z,96382.81
2022-11-16T12:01:25.506Z,96382.38
2022-11-16T12:03:59.704Z,96382.13
2022-11-16T12:06:44.581Z,96386.13
2022-11-16T12:09:31.947Z,96385.63
2022-11-16T12:12:16.749Z,96384.84
2022-11-16T12:14:52.630Z,96389.28
2022-11-16T12:17:40.978Z,96390.41
2022-11-16T12:20:26.316Z,96396.25
2022-11-16T12:23:35.161Z,96397.22
2022-11-16T12:26:34.149Z,96392.94
2022-11-16T12:29:20.213Z,96377.25
2022-11-16T12:32:04.609Z,96378.19
2022-11-16T12:34:42.630Z,96386.63
2022-11-16T12:37:30.614Z,96376.53
2022-11-16T12:40:22.149Z,96372.56
2022-11-16T12:43:22.572Z,96373.31
2022-11-16T12:46:07.149Z,96375.50
2022-11-16T12:48:48.605Z,96366.88
2022-11-16T12:51:52.201Z,96376.94
2022-11-16T12:55:24.071Z,96376.00
2022-11-16T12:57:47.995Z,96369.56
2022-11-16T13:00:16.578Z,96361.63
2022-11-16T13:03:09.552Z,96364.44
2022-11-16T13:05:54.186Z,96358.00
2022-11-16T13:08:34.140Z,96356.47
2022-11-16T13:11:18.385Z,96357.16
2022-11-16T13:13:52.889Z,96355.38
2022-11-16T13:16:21.493Z,96355.94
2022-11-16T13:18:48.410Z,96369.06
2022-11-16T13:21:25.440Z,96365.34
2022-11-16T13:24:00.792Z,96365.44
2022-11-16T13:26:41.645Z,96364.25
2022-11-16T13:29:50.501Z,96360.41
2022-11-16T13:32:24.777Z,96360.22
2022-11-16T13:34:52.374Z,96362.94
2022-11-16T13:37:37.087Z,96358.78
2022-11-16T13:40:04.547Z,96350.25
2022-11-16T13:42:34.381Z,96357.13
2022-11-16T13:45:19.322Z,96357.69
2022-11-16T13:47:54.037Z,96354.22
2022-11-16T13:50:38.540Z,96339.50
2022-11-16T13:56:01.526Z,96342.63
2022-11-16T13:58:31.190Z,96336.78
2022-11-16T14:01:04.806Z,96342.31
2022-11-16T14:03:39.453Z,96343.16
2022-11-16T14:06:28.581Z,96340.56
2022-11-16T14:08:59.492Z,96340.06
2022-11-16T14:11:39.377Z,96343.16
2022-11-16T14:14:11.572Z,96345.03
2022-11-16T14:16:51.472Z,96339.06
2022-11-16T14:19:57.046Z,96334.50
2022-11-16T14:22:40.488Z,96325.44
2022-11-16T14:25:29.902Z,96317.78
2022-11-16T14:28:07.152Z,96321.72
2022-11-16T14:30:56.522Z,96320.44
2022-11-16T14:33:32.365Z,96328.22
2022-11-16T14:36:01.046Z,96326.56
2022-11-16T14:38:44.414Z,96316.25
2022-11-16T14:41:21.098Z,96314.75
2022-11-16T14:43:50.992Z,96318.16
2022-11-16T14:46:23.310Z,96313.69
2022-11-16T14:48:50.356Z,96320.91
2022-11-16T14:51:21.971Z,96313.28
2022-11-16T14:54:15.679Z,96312.84
2022-11-16T14:57:02.565Z,96304.91
2022-11-16T14:59:31.302Z,96317.88
2022-11-16T15:02:03.793Z,96309.38
2022-11-16T15:04:30.898Z,96296.81
2022-11-16T15:07:02.513Z,96292.00
2022-11-16T15:09:41.840Z,96295.00
2022-11-16T15:12:36.249Z,96291.47
2022-11-16T15:15:12.088Z,96293.09
2022-11-16T15:17:41.176Z,96295.06
2022-11-16T15:20:16.775Z,96296.84
2022-11-16T15:22:45.376Z,96307.41
2022-11-16T15:25:25.841Z,96293.75
2022-11-16T15:27:52.725Z,96295.06
2022-11-16T15:30:25.461Z,96298.31
2022-11-16T15:32:53.526Z,96292.72
2022-11-16T15:35:22.995Z,96285.69
2022-11-16T15:38:15.985Z,96286.13
2022-11-16T15:41:04.429Z,96289.69
2022-11-16T15:43:40.990Z,96285.66
2022-11-16T15:46:13.834Z,96279.50
2022-11-16T15:48:41.208Z,96287.47
2022-11-16T15:51:15.172Z,96287.66
2022-11-16T15:53:50.250Z,96296.59
2022-11-16T15:56:25.590Z,96296.91
2022-11-16T15:58:54.285Z,96295.38
2022-11-16T16:01:22.175Z,96293.88
2022-11-16T16:03:54.797Z,96294.88
2022-11-16T16:06:45.198Z,96306.13
2022-11-16T16:09:20.645Z,96296.09
2022-11-16T16:11:47.543Z,96290.47
2022-11-16T16:14:28.478Z,96293.00
2022-11-16T16:17:00.565Z,96296.25
2022-11-16T16:19:36.142Z,96313.75
2022-11-16T16:22:05.091Z,96302.66
2022-11-16T16:24:38.512Z,96304.53
2022-11-16T16:27:12.179Z,96301.47
2022-11-16T16:29:39.004Z,96306.59
2022-11-16T16:32:05.650Z,96310.31
2022-11-16T16:34:31.969Z,96315.56
2022-11-16T16:36:58.242Z,96303.13
2022-11-16T16:39:24.654Z,96288.47
2022-11-16T16:41:51.337Z,96290.69
2022-11-16T16:44:17.824Z,96289.16
2022-11-16T16:46:44.112Z,96299.31
2022-11-16T16:49:10.735Z,96292.78
2022-11-16T16:51:37.242Z,96289.16
2022-11-16T16:54:04.011Z,96281.59
2022-11-16T16:56:30.431Z,96287.63
2022-11-16T16:58:57.069Z,96295.28
2022-11-16T17:01:23.614Z,96305.88
2022-11-16T17:03:49.983Z,96303.03
2022-11-16T17:06:16.999Z,96299.22
2022-11-16T17:08:43.597Z,96306.00
2022-11-16T17:11:12.384Z,96304.47
2022-11-16T17:13:38.886Z,96306.59
2022-11-16T17:16:05.971Z,96296.50
2022-11-16T17:18:32.567Z,96285.69
2022-11-16T17:21:07.126Z,96286.91
2022-11-16T17:23:34.403Z,96288.75
2022-11-16T17:26:05.803Z,96287.13
2022-11-16T17:28:32.794Z,96294.38
2022-11-16T17:31:03.999Z,96285.88
2022-11-16T17:33:38.254Z,96282.44
2022-11-16T17:36:06.456Z,96284.34
2022-11-16T17:38:34.501Z,96281.63
2022-11-16T17:41:15.803Z,96278.47
2022-11-16T17:43:44.250Z,96285.06
2022-11-16T17:46:18.833Z,96288.97
2022-11-16T17:48:47.157Z,96288.31
2022-11-16T17:51:16.615Z,96285.91
2022-11-16T17:53:46.418Z,96278.59
2022-11-16T17:56:15.767Z,96281.44
2022-11-16T17:58:42.343Z,96280.66
2022-11-16T18:01:08.962Z,96273.69
2022-11-16T18:03:36.895Z,96272.53
2022-11-16T18:06:06.568Z,96268.09
2022-11-16T18:08:34.440Z,96276.03
2022-11-16T18:11:15.948Z,96261.63
2022-11-16T18:13:43.815Z,96264.16
2022-11-16T18:16:16.670Z,96257.03
2022-11-16T18:18:44.458Z,96263.28
2022-11-16T18:21:15.842Z,96251.75
2022-11-16T18:23:46.465Z,96259.91
2022-11-16T18:26:15.623Z,96255.59
2022-11-16T18:28:44.889Z,96253.63
2022-11-16T18:31:14.454Z,96250.06
2022-11-16T18:33:41.413Z,96239.31
2022-11-16T18:36:09.133Z,96238.47
2022-11-16T18:38:36.555Z,96240.56
2022-11-16T18:41:13.705Z,96240.22
2022-11-16T18:43:41.629Z,96218.13
2022-11-16T18:46:08.421Z,96221.00
2022-11-16T18:48:35.494Z,96227.94
2022-11-16T18:51:03.610Z,96218.25
2022-11-16T18:53:32.218Z,96221.16
2022-11-16T18:55:59.165Z,96216.97
2022-11-16T19:01:16.171Z,96210.84
2022-11-16T19:03:42.646Z,96209.91
2022-11-16T19:06:10.393Z,96205.59
2022-11-16T19:08:38.522Z,96212.78
2022-11-16T19:11:13.343Z,96217.94
2022-11-16T19:13:41.154Z,96224.25
2022-11-16T19:16:09.555Z,96213.56
2022-11-16T19:18:37.067Z,96205.41
2022-11-16T19:21:14.349Z,96199.44
2022-11-16T19:23:45.939Z,96193.78
2022-11-16T19:26:14.165Z,96191.72
2022-11-16T19:28:42.699Z,96194.09
2022-11-16T19:31:26.148Z,96198.84
2022-11-16T19:34:00.377Z,96191.78
2022-11-16T19:36:28.996Z,96184.63
2022-11-16T19:38:55.710Z,96182.50
2022-11-16T19:41:23.191Z,96182.13
2022-11-16T19:43:52.537Z,96185.81
2022-11-16T19:46:24.514Z,96172.59
2022-11-16T19:48:51.973Z,96182.31
2022-11-16T19:51:21.215Z,96174.91
2022-11-16T19:53:47.869Z,96169.53
2022-11-16T19:56:16.430Z,96176.22
2022-11-16T19:58:43.836Z,96168.41
2022-11-16T20:01:13.104Z,96165.44
2022-11-16T20:03:42.899Z,96168.28
2022-11-16T20:06:12.353Z,96152.13
2022-11-16T20:08:40.357Z,96163.56
2022-11-16T20:11:20.477Z,96164.34
2022-11-16T20:13:48.246Z,96170.59
2022-11-16T20:16:15.823Z,96168.44
2022-11-16T20:18:42.997Z,96173.75
2022-11-16T20:21:16.378Z,96181.19
2022-11-16T20:23:44.685Z,96181.34
2022-11-16T20:26:13.765Z,96178.13
2022-11-16T20:28:42.293Z,96177.03
2022-11-16T20:31:19.224Z,96170.41
2022-11-16T20:33:56.898Z,96177.69
2022-11-16T20:36:25.808Z,96175.44
2022-11-16T20:38:53.181Z,96173.38
2022-11-16T20:41:25.018Z,96165.75
2022-11-16T20:43:53.981Z,96175.28
2022-11-16T20:46:22.407Z,96176.81
2022-11-16T20:48:48.868Z,96172.34
2022-11-16T20:51:17.803Z,96167.06
2022-11-16T20:53:45.626Z,96168.75
2022-11-16T20:56:12.438Z,96166.81
2022-11-16T20:58:39.679Z,96165.81
2022-11-16T21:01:08.867Z,96170.41
2022-11-16T21:03:35.788Z,96165.63
2022-11-16T21:06:03.088Z,96158.84
2022-11-16T21:08:30.048Z,96164.28
2022-11-16T21:10:56.929Z,96155.41
2022-11-16T21:13:42.479Z,96151.47
2022-11-16T21:16:11.542Z,96152.44
2022-11-16T21:18:39.617Z,96162.06
2022-11-16T21:21:14.880Z,96165.81
2022-11-16T21:23:51.620Z,96162.38
2022-11-16T21:26:20.476Z,96162.03
2022-11-16T21:28:47.104Z,96155.97
2022-11-16T21:31:16.528Z,96163.41
2022-11-16T21:33:44.848Z,96165.47
2022-11-16T21:36:19.074Z,96168.44
2022-11-16T21:38:45.981Z,96172.78
2022-11-16T21:41:14.620Z,96178.94
2022-11-16T21:43:41.330Z,96167.38
2022-11-16T21:46:13.865Z,96158.63
2022-11-16T21:48:40.738Z,96148.50
2022-11-16T21:51:12.784Z,96137.28
2022-11-16T21:53:39.831Z,96125.91
2022-11-16T21:56:07.934Z,96127.59
2022-11-16T21:58:34.394Z,96130.16
2022-11-16T22:01:02.323Z,96125.75
2022-11-16T22:03:31.063Z,96128.47
2022-11-16T22:06:18.268Z,96120.97
2022-11-16T22:08:45.461Z,96125.75
2022-11-16T22:11:13.113Z,96128.78
2022-11-16T22:13:39.790Z,96132.09
2022-11-16T22:16:12.075Z,96136.78
2022-11-16T22:18:39.496Z,96132.69
2022-11-16T22:21:07.520Z,96133.00
2022-11-16T22:23:35.030Z,96126.56
2022-11-16T22:26:02.250Z,96126.56
2022-11-16T22:28:28.975Z,96121.81
2022-11-16T22:31:26.210Z,96121.06
2022-11-16T22:33:53.723Z,96119.16
2022-11-16T22:36:20.421Z,96110.59
2022-11-16T22:38:46.734Z,96107.63
2022-11-16T22:41:13.291Z,96099.34
2022-11-16T22:43:40.072Z,96092.72
2022-11-16T22:46:06.626Z,96088.78
2022-11-16T22:48:35.302Z,96085.22
2022-11-16T22:51:24.966Z,96095.88
2022-11-16T22:53:56.656Z,96092.56
2022-11-16T22:56:23.977Z,96090.00
2022-11-16T22:58:50.745Z,96094.03
2022-11-16T23:01:17.854Z,96093.75
2022-11-16T23:03:44.632Z,96087.97
2022-11-16T23:06:11.617Z,96087.44
2022-11-16T23:08:39.873Z,96078.25
2022-11-16T23:11:37.239Z,96077.16
2022-11-16T23:14:23.293Z,96060.22
2022-11-16T23:16:50.016Z,96062.53
2022-11-16T23:19:36.658Z,96072.34
2022-11-16T23:22:22.978Z,96066.22
2022-11-16T23:25:08.115Z,96056.88
2022-11-16T23:27:57.031Z,96058.75
2022-11-16T23:30:24.095Z,96064.47
2022-11-16T23:32:51.009Z,96061.34
2022-11-16T23:35:18.118Z,96059.19
2022-11-16T23:37:57.978Z,96052.81
2022-11-16T23:40:27.058Z,96053.69
2022-11-16T23:43:12.726Z,96046.22
2022-11-16T23:45:40.324Z,96045.88
2022-11-16T23:48:08.574Z,96045.34
2022-11-16T23:50:35.063Z,96062.53
2022-11-16T23:53:02.003Z,96052.31
2022-11-16T23:55:28.797Z,96055.38
2022-11-16T23:57:55.435Z,96046.22
